sensor_id;sensor_type;location;lat;lon;timestamp;pressure;altitude;pressure_sealevel;temperature;humidity
71559;BME280;59382;43.852;25.952;2023-02-23T00:02:13;101243.19;;;10.76;47.22
71559;BME280;59382;43.852;25.952;2023-02-23T00:04:41;101237.31;;;10.66;47.46
71559;BME280;59382;43.852;25.952;2023-02-23T00:07:08;101242.09;;;10.64;47.67
71559;BME280;59382;43.852;25.952;2023-02-23T00:09:34;101245.59;;;10.64;47.56
71559;BME280;59382;43.852;25.952;2023-02-23T00:12:01;101242.50;;;10.61;47.53
71559;BME280;59382;43.852;25.952;2023-02-23T00:14:33;101253.72;;;10.64;47.42
71559;BME280;59382;43.852;25.952;2023-02-23T00:16:58;101243.50;;;10.60;47.18
71559;BME280;59382;43.852;25.952;2023-02-23T00:19:24;101231.19;;;10.51;47.25
71559;BME280;59382;43.852;25.952;2023-02-23T00:21:50;101233.22;;;10.42;47.35
71559;BME280;59382;43.852;25.952;2023-02-23T00:24:16;101222.38;;;10.36;47.55
71559;BME280;59382;43.852;25.952;2023-02-23T00:26:46;101246.13;;;10.47;47.39
71559;BME280;59382;43.852;25.952;2023-02-23T00:29:15;101235.09;;;10.42;47.08
71559;BME280;59382;43.852;25.952;2023-02-23T00:31:42;101243.19;;;10.42;47.25
71559;BME280;59382;43.852;25.952;2023-02-23T00:34:09;101244.63;;;10.38;47.36
71559;BME280;59382;43.852;25.952;2023-02-23T00:36:36;101226.28;;;10.27;47.43
71559;BME280;59382;43.852;25.952;2023-02-23T00:39:04;101231.03;;;10.25;47.49
71559;BME280;59382;43.852;25.952;2023-02-23T00:41:54;101215.16;;;10.09;47.53
71559;BME280;59382;43.852;25.952;2023-02-23T00:44:21;101243.41;;;10.13;47.45
71559;BME280;59382;43.852;25.952;2023-02-23T00:46:48;101233.28;;;10.00;47.70
71559;BME280;59382;43.852;25.952;2023-02-23T00:49:17;101242.41;;;9.99;47.57
71559;BME280;59382;43.852;25.952;2023-02-23T00:51:43;101225.56;;;9.69;47.84
71559;BME280;59382;43.852;25.952;2023-02-23T00:54:11;101235.97;;;9.72;48.17
71559;BME280;59382;43.852;25.952;2023-02-23T00:56:38;101237.59;;;9.67;48.49
71559;BME280;59382;43.852;25.952;2023-02-23T00:59:04;101242.97;;;9.67;48.28
71559;BME280;59382;43.852;25.952;2023-02-23T01:01:30;101232.13;;;9.60;48.50
71559;BME280;59382;43.852;25.952;2023-02-23T01:03:55;101234.81;;;9.60;48.55
71559;BME280;59382;43.852;25.952;2023-02-23T01:06:21;101227.03;;;9.51;48.63
71559;BME280;59382;43.852;25.952;2023-02-23T01:08:48;101215.28;;;9.37;48.71
71559;BME280;59382;43.852;25.952;2023-02-23T01:11:16;101229.69;;;9.44;48.83
71559;BME280;59382;43.852;25.952;2023-02-23T01:13:44;101217.78;;;9.39;48.94
71559;BME280;59382;43.852;25.952;2023-02-23T01:16:14;101215.09;;;9.39;48.92
71559;BME280;59382;43.852;25.952;2023-02-23T01:18:41;101223.00;;;9.40;49.17
71559;BME280;59382;43.852;25.952;2023-02-23T01:21:24;101225.88;;;9.39;48.98
71559;BME280;59382;43.852;25.952;2023-02-23T01:23:51;101224.41;;;9.36;48.78
71559;BME280;59382;43.852;25.952;2023-02-23T01:28:53;101239.16;;;9.40;49.39
71559;BME280;59382;43.852;25.952;2023-02-23T01:31:21;101234.41;;;9.42;49.62
71559;BME280;59382;43.852;25.952;2023-02-23T01:33:46;101227.75;;;9.38;49.41
71559;BME280;59382;43.852;25.952;2023-02-23T01:36:12;101224.78;;;9.33;49.36
71559;BME280;59382;43.852;25.952;2023-02-23T01:38:38;101246.84;;;9.43;49.29
71559;BME280;59382;43.852;25.952;2023-02-23T01:41:04;101230.69;;;9.43;49.40
71559;BME280;59382;43.852;25.952;2023-02-23T01:43:31;101237.38;;;9.47;49.44
71559;BME280;59382;43.852;25.952;2023-02-23T01:45:57;101236.72;;;9.45;49.32
71559;BME280;59382;43.852;25.952;2023-02-23T01:48:29;101227.00;;;9.44;49.74
71559;BME280;59382;43.852;25.952;2023-02-23T01:51:14;101224.47;;;9.43;49.67
71559;BME280;59382;43.852;25.952;2023-02-23T01:53:55;101215.28;;;9.37;49.76
71559;BME280;59382;43.852;25.952;2023-02-23T01:56:27;101210.94;;;9.36;49.65
71559;BME280;59382;43.852;25.952;2023-02-23T01:58:56;101224.47;;;9.43;49.86
71559;BME280;59382;43.852;25.952;2023-02-23T02:01:23;101223.63;;;9.42;49.91
71559;BME280;59382;43.852;25.952;2023-02-23T02:03:54;101200.53;;;9.33;49.95
71559;BME280;59382;43.852;25.952;2023-02-23T02:06:21;101220.75;;;9.44;49.74
71559;BME280;59382;43.852;25.952;2023-02-23T02:08:50;101239.13;;;9.55;49.59
71559;BME280;59382;43.852;25.952;2023-02-23T02:11:20;101235.00;;;9.59;49.70
71559;BME280;59382;43.852;25.952;2023-02-23T02:14:21;101233.78;;;9.61;49.85
71559;BME280;59382;43.852;25.952;2023-02-23T02:30:33;101238.47;;;9.74;49.50
71559;BME280;59382;43.852;25.952;2023-02-23T02:35:54;101232.19;;;9.67;49.55
71559;BME280;59382;43.852;25.952;2023-02-23T02:38:32;101239.69;;;9.71;49.53
71559;BME280;59382;43.852;25.952;2023-02-23T02:41:04;101220.97;;;9.63;49.39
71559;BME280;59382;43.852;25.952;2023-02-23T02:46:26;101239.81;;;9.84;49.56
71559;BME280;59382;43.852;25.952;2023-02-23T02:51:31;101205.88;;;9.69;49.64
71559;BME280;59382;43.852;25.952;2023-02-23T02:56:37;101239.72;;;9.99;49.58
71559;BME280;59382;43.852;25.952;2023-02-23T02:59:17;101240.56;;;9.99;49.36
71559;BME280;59382;43.852;25.952;2023-02-23T03:02:02;101241.19;;;10.01;49.55
71559;BME280;59382;43.852;25.952;2023-02-23T03:04:47;101243.69;;;10.03;49.32
71559;BME280;59382;43.852;25.952;2023-02-23T03:11:08;101238.25;;;9.96;49.51
71559;BME280;59382;43.852;25.952;2023-02-23T03:14:15;101254.28;;;10.04;49.67
71559;BME280;59382;43.852;25.952;2023-02-23T03:20:29;101258.72;;;10.12;48.99
71559;BME280;59382;43.852;25.952;2023-02-23T03:27:06;101271.50;;;10.03;49.76
71559;BME280;59382;43.852;25.952;2023-02-23T03:30:24;101273.16;;;10.04;49.52
71559;BME280;59382;43.852;25.952;2023-02-23T03:33:16;101267.47;;;10.14;49.61
71559;BME280;59382;43.852;25.952;2023-02-23T03:36:12;101242.13;;;10.09;49.44
71559;BME280;59382;43.852;25.952;2023-02-23T03:39:10;101263.31;;;10.12;49.33
71559;BME280;59382;43.852;25.952;2023-02-23T03:41:57;101271.31;;;10.05;49.39
71559;BME280;59382;43.852;25.952;2023-02-23T03:44:44;101256.88;;;9.91;49.74
71559;BME280;59382;43.852;25.952;2023-02-23T03:47:34;101257.91;;;9.90;49.67
71559;BME280;59382;43.852;25.952;2023-02-23T03:50:25;101255.22;;;9.90;49.45
71559;BME280;59382;43.852;25.952;2023-02-23T03:53:15;101251.41;;;9.85;49.53
71559;BME280;59382;43.852;25.952;2023-02-23T03:56:01;101273.03;;;9.91;49.59
71559;BME280;59382;43.852;25.952;2023-02-23T03:58:50;101255.47;;;9.74;49.93
71559;BME280;59382;43.852;25.952;2023-02-23T04:01:38;101275.25;;;9.81;50.39
71559;BME280;59382;43.852;25.952;2023-02-23T04:04:23;101266.66;;;9.71;50.08
71559;BME280;59382;43.852;25.952;2023-02-23T04:07:09;101276.38;;;9.72;49.86
71559;BME280;59382;43.852;25.952;2023-02-23T04:09:54;101284.47;;;9.72;50.21
71559;BME280;59382;43.852;25.952;2023-02-23T04:13:02;101280.50;;;9.68;50.43
71559;BME280;59382;43.852;25.952;2023-02-23T04:15:48;101259.34;;;9.65;50.17
71559;BME280;59382;43.852;25.952;2023-02-23T04:18:20;101280.81;;;9.80;50.15
71559;BME280;59382;43.852;25.952;2023-02-23T04:20:46;101284.56;;;9.79;49.91
71559;BME280;59382;43.852;25.952;2023-02-23T04:23:12;101278.19;;;9.65;50.08
71559;BME280;59382;43.852;25.952;2023-02-23T04:25:38;101290.63;;;9.66;50.10
71559;BME280;59382;43.852;25.952;2023-02-23T04:28:03;101276.09;;;9.46;50.41
71559;BME280;59382;43.852;25.952;2023-02-23T04:30:29;101279.94;;;9.37;50.68
71559;BME280;59382;43.852;25.952;2023-02-23T04:32:55;101301.47;;;9.37;51.13
71559;BME280;59382;43.852;25.952;2023-02-23T04:35:22;101302.81;;;9.27;51.59
71559;BME280;59382;43.852;25.952;2023-02-23T04:37:48;101296.69;;;9.18;51.31
71559;BME280;59382;43.852;25.952;2023-02-23T04:40:14;101307.59;;;9.10;51.48
71559;BME280;59382;43.852;25.952;2023-02-23T04:42:40;101303.19;;;9.09;51.68
71559;BME280;59382;43.852;25.952;2023-02-23T04:45:06;101291.16;;;9.05;51.71
71559;BME280;59382;43.852;25.952;2023-02-23T04:47:32;101309.53;;;9.16;51.63
71559;BME280;59382;43.852;25.952;2023-02-23T04:49:59;101314.72;;;9.18;51.62
71559;BME280;59382;43.852;25.952;2023-02-23T04:52:25;101311.19;;;9.17;51.80
71559;BME280;59382;43.852;25.952;2023-02-23T04:54:51;101282.41;;;9.03;51.63
71559;BME280;59382;43.852;25.952;2023-02-23T04:57:16;101288.75;;;9.10;51.59
71559;BME280;59382;43.852;25.952;2023-02-23T04:59:42;101318.22;;;9.18;51.61
71559;BME280;59382;43.852;25.952;2023-02-23T05:02:07;101308.22;;;9.12;51.76
71559;BME280;59382;43.852;25.952;2023-02-23T05:04:33;101314.25;;;9.14;51.74
71559;BME280;59382;43.852;25.952;2023-02-23T05:07:00;101315.28;;;9.13;51.72
71559;BME280;59382;43.852;25.952;2023-02-23T05:09:25;101322.72;;;9.11;51.52
71559;BME280;59382;43.852;25.952;2023-02-23T05:11:51;101315.19;;;9.07;51.85
71559;BME280;59382;43.852;25.952;2023-02-23T05:14:17;101324.75;;;9.09;51.80
71559;BME280;59382;43.852;25.952;2023-02-23T05:16:42;101315.09;;;9.00;51.64
71559;BME280;59382;43.852;25.952;2023-02-23T05:19:08;101315.47;;;8.97;51.87
71559;BME280;59382;43.852;25.952;2023-02-23T05:21:33;101311.59;;;9.00;51.85
71559;BME280;59382;43.852;25.952;2023-02-23T05:23:59;101320.94;;;9.04;51.69
71559;BME280;59382;43.852;25.952;2023-02-23T05:26:24;101333.84;;;9.08;51.76
71559;BME280;59382;43.852;25.952;2023-02-23T05:28:50;101321.50;;;8.99;51.83
71559;BME280;59382;43.852;25.952;2023-02-23T05:31:15;101323.72;;;8.96;51.93
71559;BME280;59382;43.852;25.952;2023-02-23T05:33:41;101313.81;;;8.96;51.73
71559;BME280;59382;43.852;25.952;2023-02-23T05:36:09;101330.50;;;9.06;51.65
71559;BME280;59382;43.852;25.952;2023-02-23T05:38:40;101327.56;;;9.01;51.92
71559;BME280;59382;43.852;25.952;2023-02-23T05:41:07;101338.31;;;9.01;52.08
71559;BME280;59382;43.852;25.952;2023-02-23T05:43:33;101347.31;;;9.08;52.04
71559;BME280;59382;43.852;25.952;2023-02-23T05:45:59;101349.63;;;9.11;52.10
71559;BME280;59382;43.852;25.952;2023-02-23T05:48:26;101360.03;;;9.14;52.01
71559;BME280;59382;43.852;25.952;2023-02-23T05:50:52;101359.13;;;9.07;52.06
71559;BME280;59382;43.852;25.952;2023-02-23T05:53:17;101363.66;;;9.07;52.15
71559;BME280;59382;43.852;25.952;2023-02-23T05:55:43;101369.13;;;9.13;51.98
71559;BME280;59382;43.852;25.952;2023-02-23T05:58:10;101368.66;;;9.10;51.98
71559;BME280;59382;43.852;25.952;2023-02-23T06:00:35;101364.38;;;9.01;51.61
71559;BME280;59382;43.852;25.952;2023-02-23T06:03:01;101393.19;;;9.15;52.15
71559;BME280;59382;43.852;25.952;2023-02-23T06:05:26;101381.28;;;9.09;52.10
71559;BME280;59382;43.852;25.952;2023-02-23T06:07:52;101382.97;;;9.25;52.03
71559;BME280;59382;43.852;25.952;2023-02-23T06:10:18;101360.31;;;9.19;51.90
71559;BME280;59382;43.852;25.952;2023-02-23T06:12:43;101399.38;;;9.44;51.82
71559;BME280;59382;43.852;25.952;2023-02-23T06:15:09;101404.59;;;9.46;51.76
71559;BME280;59382;43.852;25.952;2023-02-23T06:17:35;101405.03;;;9.35;51.81
71559;BME280;59382;43.852;25.952;2023-02-23T06:20:00;101401.78;;;9.39;52.00
71559;BME280;59382;43.852;25.952;2023-02-23T06:22:29;101418.13;;;9.52;52.10
71559;BME280;59382;43.852;25.952;2023-02-23T06:24:54;101412.28;;;9.49;51.76
71559;BME280;59382;43.852;25.952;2023-02-23T06:27:20;101399.00;;;9.47;51.46
71559;BME280;59382;43.852;25.952;2023-02-23T06:29:45;101416.09;;;9.54;51.69
71559;BME280;59382;43.852;25.952;2023-02-23T06:32:10;101416.38;;;9.59;51.41
71559;BME280;59382;43.852;25.952;2023-02-23T06:34:36;101431.03;;;9.71;51.61
71559;BME280;59382;43.852;25.952;2023-02-23T06:37:02;101430.00;;;9.72;51.67
71559;BME280;59382;43.852;25.952;2023-02-23T06:39:28;101422.97;;;9.71;51.43
71559;BME280;59382;43.852;25.952;2023-02-23T06:41:53;101421.34;;;9.77;51.48
71559;BME280;59382;43.852;25.952;2023-02-23T06:44:19;101428.50;;;9.84;51.66
71559;BME280;59382;43.852;25.952;2023-02-23T06:46:44;101445.47;;;9.99;51.22
71559;BME280;59382;43.852;25.952;2023-02-23T06:49:10;101434.94;;;10.04;51.29
71559;BME280;59382;43.852;25.952;2023-02-23T06:51:36;101437.94;;;10.10;51.28
71559;BME280;59382;43.852;25.952;2023-02-23T06:54:01;101443.84;;;10.20;51.20
71559;BME280;59382;43.852;25.952;2023-02-23T06:56:27;101439.78;;;10.24;51.16
71559;BME280;59382;43.852;25.952;2023-02-23T06:58:53;101433.06;;;10.20;51.11
71559;BME280;59382;43.852;25.952;2023-02-23T07:01:19;101441.66;;;10.30;51.06
71559;BME280;59382;43.852;25.952;2023-02-23T07:03:45;101451.44;;;10.31;51.15
71559;BME280;59382;43.852;25.952;2023-02-23T07:06:11;101443.34;;;10.31;51.04
71559;BME280;59382;43.852;25.952;2023-02-23T07:08:36;101419.34;;;10.15;51.28
71559;BME280;59382;43.852;25.952;2023-02-23T07:11:13;101444.16;;;10.31;51.02
71559;BME280;59382;43.852;25.952;2023-02-23T07:13:40;101443.22;;;10.39;51.21
71559;BME280;59382;43.852;25.952;2023-02-23T07:16:07;101442.81;;;10.42;51.13
71559;BME280;59382;43.852;25.952;2023-02-23T07:18:32;101437.81;;;10.39;51.05
71559;BME280;59382;43.852;25.952;2023-02-23T07:20:58;101437.56;;;10.34;51.12
71559;BME280;59382;43.852;25.952;2023-02-23T07:23:23;101443.22;;;10.39;50.99
71559;BME280;59382;43.852;25.952;2023-02-23T07:25:50;101450.81;;;10.50;50.98
71559;BME280;59382;43.852;25.952;2023-02-23T07:28:16;101446.63;;;10.47;50.94
71559;BME280;59382;43.852;25.952;2023-02-23T07:30:42;101460.94;;;10.69;51.07
71559;BME280;59382;43.852;25.952;2023-02-23T07:33:10;101458.13;;;10.77;51.06
71559;BME280;59382;43.852;25.952;2023-02-23T07:35:36;101429.78;;;10.66;50.81
71559;BME280;59382;43.852;25.952;2023-02-23T07:38:01;101447.28;;;10.98;50.33
71559;BME280;59382;43.852;25.952;2023-02-23T07:40:28;101470.91;;;11.17;49.92
71559;BME280;59382;43.852;25.952;2023-02-23T07:42:54;101465.97;;;11.27;50.00
71559;BME280;59382;43.852;25.952;2023-02-23T07:45:19;101466.75;;;11.21;49.89
71559;BME280;59382;43.852;25.952;2023-02-23T07:47:45;101458.84;;;11.13;50.11
71559;BME280;59382;43.852;25.952;2023-02-23T07:50:11;101477.56;;;11.21;50.13
71559;BME280;59382;43.852;25.952;2023-02-23T07:52:39;101483.81;;;11.21;50.19
71559;BME280;59382;43.852;25.952;2023-02-23T07:55:06;101484.00;;;11.20;50.40
71559;BME280;59382;43.852;25.952;2023-02-23T07:57:32;101465.91;;;11.14;50.53
71559;BME280;59382;43.852;25.952;2023-02-23T07:59:58;101475.13;;;11.26;50.53
71559;BME280;59382;43.852;25.952;2023-02-23T08:02:25;101481.47;;;11.39;50.24
71559;BME280;59382;43.852;25.952;2023-02-23T08:04:50;101469.06;;;11.58;49.86
71559;BME280;59382;43.852;25.952;2023-02-23T08:07:19;101476.28;;;11.72;49.87
71559;BME280;59382;43.852;25.952;2023-02-23T08:09:45;101484.59;;;11.77;49.57
71559;BME280;59382;43.852;25.952;2023-02-23T08:12:10;101467.56;;;11.83;49.77
71559;BME280;59382;43.852;25.952;2023-02-23T08:14:36;101485.53;;;11.97;49.50
71559;BME280;59382;43.852;25.952;2023-02-23T08:17:02;101473.47;;;11.93;50.03
71559;BME280;59382;43.852;25.952;2023-02-23T08:19:28;101483.06;;;12.02;49.80
71559;BME280;59382;43.852;25.952;2023-02-23T08:21:53;101488.69;;;12.07;49.48
71559;BME280;59382;43.852;25.952;2023-02-23T08:24:20;101492.47;;;12.13;49.75
71559;BME280;59382;43.852;25.952;2023-02-23T08:26:46;101466.84;;;12.02;49.56
71559;BME280;59382;43.852;25.952;2023-02-23T08:29:11;101493.59;;;12.38;49.42
71559;BME280;59382;43.852;25.952;2023-02-23T08:31:37;101496.13;;;12.65;49.05
71559;BME280;59382;43.852;25.952;2023-02-23T08:34:02;101500.97;;;12.89;48.61
71559;BME280;59382;43.852;25.952;2023-02-23T08:36:28;101507.47;;;13.01;48.65
71559;BME280;59382;43.852;25.952;2023-02-23T08:38:53;101512.25;;;12.99;48.79
71559;BME280;59382;43.852;25.952;2023-02-23T08:41:19;101508.25;;;12.95;48.92
71559;BME280;59382;43.852;25.952;2023-02-23T08:43:46;101494.25;;;12.72;49.01
71559;BME280;59382;43.852;25.952;2023-02-23T08:46:12;101511.56;;;12.71;49.39
71559;BME280;59382;43.852;25.952;2023-02-23T08:48:37;101501.97;;;12.62;49.41
71559;BME280;59382;43.852;25.952;2023-02-23T08:51:06;101492.78;;;12.63;49.48
71559;BME280;59382;43.852;25.952;2023-02-23T08:53:32;101506.16;;;12.71;49.52
71559;BME280;59382;43.852;25.952;2023-02-23T08:56:00;101521.16;;;12.80;49.91
71559;BME280;59382;43.852;25.952;2023-02-23T08:58:27;101519.09;;;12.82;49.96
71559;BME280;59382;43.852;25.952;2023-02-23T09:00:53;101502.59;;;12.71;49.97
71559;BME280;59382;43.852;25.952;2023-02-23T09:03:19;101509.50;;;12.73;50.23
71559;BME280;59382;43.852;25.952;2023-02-23T09:05:45;101512.19;;;12.73;50.28
71559;BME280;59382;43.852;25.952;2023-02-23T09:08:12;101515.31;;;12.70;50.56
71559;BME280;59382;43.852;25.952;2023-02-23T09:10:38;101523.63;;;12.75;50.85
71559;BME280;59382;43.852;25.952;2023-02-23T09:13:04;101525.34;;;12.76;50.67
71559;BME280;59382;43.852;25.952;2023-02-23T09:15:30;101517.81;;;12.78;50.78
71559;BME280;59382;43.852;25.952;2023-02-23T09:18:01;101524.50;;;12.82;51.02
71559;BME280;59382;43.852;25.952;2023-02-23T09:20:27;101524.09;;;12.85;50.75
71559;BME280;59382;43.852;25.952;2023-02-23T09:22:54;101517.81;;;12.78;50.66
71559;BME280;59382;43.852;25.952;2023-02-23T09:25:21;101528.66;;;12.85;51.13
71559;BME280;59382;43.852;25.952;2023-02-23T09:27:51;101514.91;;;12.73;51.09
71559;BME280;59382;43.852;25.952;2023-02-23T09:30:20;101513.84;;;12.74;51.36
71559;BME280;59382;43.852;25.952;2023-02-23T09:32:47;101510.72;;;12.71;51.56
71559;BME280;59382;43.852;25.952;2023-02-23T09:35:14;101525.72;;;12.80;51.51
71559;BME280;59382;43.852;25.952;2023-02-23T09:37:50;101509.91;;;12.70;51.75
71559;BME280;59382;43.852;25.952;2023-02-23T09:40:23;101506.16;;;12.71;51.57
71559;BME280;59382;43.852;25.952;2023-02-23T09:43:02;101527.81;;;12.84;51.49
71559;BME280;59382;43.852;25.952;2023-02-23T09:45:37;101518.22;;;12.75;51.86
71559;BME280;59382;43.852;25.952;2023-02-23T09:48:14;101506.38;;;12.76;51.43
71559;BME280;59382;43.852;25.952;2023-02-23T09:50:44;101516.16;;;12.90;51.75
71559;BME280;59382;43.852;25.952;2023-02-23T09:53:28;101522.88;;;13.01;51.66
71559;BME280;59382;43.852;25.952;2023-02-23T09:55:56;101529.78;;;13.03;51.18
71559;BME280;59382;43.852;25.952;2023-02-23T09:58:31;101508.91;;;13.04;51.34
71559;BME280;59382;43.852;25.952;2023-02-23T10:06:31;101522.03;;;13.20;51.11
71559;BME280;59382;43.852;25.952;2023-02-23T10:18:11;101510.75;;;13.42;50.91
71559;BME280;59382;43.852;25.952;2023-02-23T10:26:15;101514.31;;;13.36;50.79
71559;BME280;59382;43.852;25.952;2023-02-23T10:28:42;101494.50;;;13.42;50.62
71559;BME280;59382;43.852;25.952;2023-02-23T10:31:32;101485.75;;;13.27;50.75
71559;BME280;59382;43.852;25.952;2023-02-23T10:34:03;101501.19;;;13.33;50.94
71559;BME280;59382;43.852;25.952;2023-02-23T10:36:35;101487.00;;;13.44;50.78
71559;BME280;59382;43.852;25.952;2023-02-23T10:39:06;101500.09;;;13.54;50.44
71559;BME280;59382;43.852;25.952;2023-02-23T10:41:37;101492.59;;;13.56;50.18
71559;BME280;59382;43.852;25.952;2023-02-23T10:44:03;101496.13;;;13.63;50.26
71559;BME280;59382;43.852;25.952;2023-02-23T10:49:49;101489.63;;;13.70;50.08
71559;BME280;59382;43.852;25.952;2023-02-23T10:52:25;101486.06;;;13.76;49.96
71559;BME280;59382;43.852;25.952;2023-02-23T10:54:56;101497.31;;;13.87;49.68
71559;BME280;59382;43.852;25.952;2023-02-23T10:57:47;101462.91;;;13.80;49.60
71559;BME280;59382;43.852;25.952;2023-02-23T11:00:25;101489.41;;;13.85;49.47
71559;BME280;59382;43.852;25.952;2023-02-23T11:03:00;101472.06;;;13.86;49.62
71559;BME280;59382;43.852;25.952;2023-02-23T11:05:36;101471.63;;;13.89;49.64
71559;BME280;59382;43.852;25.952;2023-02-23T11:08:09;101482.72;;;13.88;49.67
71559;BME280;59382;43.852;25.952;2023-02-23T11:10:35;101460.59;;;13.84;49.43
71559;BME280;59382;43.852;25.952;2023-02-23T11:13:01;101457.22;;;13.88;49.40
71559;BME280;59382;43.852;25.952;2023-02-23T11:15:29;101449.94;;;13.82;49.32
71559;BME280;59382;43.852;25.952;2023-02-23T11:18:00;101447.44;;;13.88;49.31
71559;BME280;59382;43.852;25.952;2023-02-23T11:20:35;101436.00;;;13.79;49.12
71559;BME280;59382;43.852;25.952;2023-02-23T11:23:15;101450.94;;;13.95;49.28
71559;BME280;59382;43.852;25.952;2023-02-23T11:25:43;101460.94;;;14.01;48.84
71559;BME280;59382;43.852;25.952;2023-02-23T11:28:24;101448.06;;;13.90;49.24
71559;BME280;59382;43.852;25.952;2023-02-23T11:30:56;101440.94;;;13.88;49.14
71559;BME280;59382;43.852;25.952;2023-02-23T11:33:30;101444.75;;;13.81;49.18
71559;BME280;59382;43.852;25.952;2023-02-23T11:36:13;101465.09;;;14.03;48.90
71559;BME280;59382;43.852;25.952;2023-02-23T11:38:39;101451.16;;;14.00;48.62
71559;BME280;59382;43.852;25.952;2023-02-23T11:41:17;101454.66;;;14.07;48.87
71559;BME280;59382;43.852;25.952;2023-02-23T11:43:58;101462.56;;;14.15;48.64
71559;BME280;59382;43.852;25.952;2023-02-23T11:46:27;101462.13;;;14.18;48.45
71559;BME280;59382;43.852;25.952;2023-02-23T11:49:06;101459.16;;;14.26;48.31
71559;BME280;59382;43.852;25.952;2023-02-23T11:51:34;101468.38;;;14.25;48.16
71559;BME280;59382;43.852;25.952;2023-02-23T11:54:01;101460.84;;;14.20;48.05
71559;BME280;59382;43.852;25.952;2023-02-23T11:56:29;101486.69;;;14.36;48.24
71559;BME280;59382;43.852;25.952;2023-02-23T11:59:00;101472.50;;;14.34;48.05
71559;BME280;59382;43.852;25.952;2023-02-23T12:01:40;101446.28;;;14.15;48.09
71559;BME280;59382;43.852;25.952;2023-02-23T12:04:21;101466.66;;;14.30;47.82
71559;BME280;59382;43.852;25.952;2023-02-23T12:06:48;101470.63;;;14.34;47.81
71559;BME280;59382;43.852;25.952;2023-02-23T12:09:16;101477.06;;;14.40;47.62
71559;BME280;59382;43.852;25.952;2023-02-23T12:11:48;101466.00;;;14.35;47.35
71559;BME280;59382;43.852;25.952;2023-02-23T12:14:28;101446.22;;;14.28;47.00
71559;BME280;59382;43.852;25.952;2023-02-23T12:17:03;101472.41;;;14.47;46.69
71559;BME280;59382;43.852;25.952;2023-02-23T12:19:38;101473.25;;;14.47;46.86
71559;BME280;59382;43.852;25.952;2023-02-23T12:22:06;101481.00;;;14.44;46.92
71559;BME280;59382;43.852;25.952;2023-02-23T12:24:53;101431.63;;;14.16;46.92
71559;BME280;59382;43.852;25.952;2023-02-23T12:27:28;101485.84;;;14.42;46.83
71559;BME280;59382;43.852;25.952;2023-02-23T12:35:54;101479.97;;;14.45;46.32
71559;BME280;59382;43.852;25.952;2023-02-23T12:40:55;101478.28;;;14.44;45.74
71559;BME280;59382;43.852;25.952;2023-02-23T12:43:32;101475.75;;;14.49;45.79
71559;BME280;59382;43.852;25.952;2023-02-23T12:46:23;101484.94;;;14.48;45.77
71559;BME280;59382;43.852;25.952;2023-02-23T12:49:04;101474.75;;;14.43;45.45
71559;BME280;59382;43.852;25.952;2023-02-23T12:54:16;101468.38;;;14.25;45.30
71559;BME280;59382;43.852;25.952;2023-02-23T13:02:09;101491.50;;;14.34;45.25
71559;BME280;59382;43.852;25.952;2023-02-23T13:18:28;101486.72;;;14.23;45.35
71559;BME280;59382;43.852;25.952;2023-02-23T13:29:40;101502.19;;;14.22;44.80
71559;BME280;59382;43.852;25.952;2023-02-23T13:32:15;101477.59;;;14.11;44.54
71559;BME280;59382;43.852;25.952;2023-02-23T13:34:47;101499.94;;;14.13;45.02
71559;BME280;59382;43.852;25.952;2023-02-23T13:37:18;101486.00;;;14.03;44.72
71559;BME280;59382;43.852;25.952;2023-02-23T13:45:20;101481.38;;;14.03;44.46
71559;BME280;59382;43.852;25.952;2023-02-23T13:47:55;101503.88;;;14.17;45.06
71559;BME280;59382;43.852;25.952;2023-02-23T13:52:52;101499.28;;;14.11;44.61
71559;BME280;59382;43.852;25.952;2023-02-23T13:58:02;101508.91;;;14.13;45.71
71559;BME280;59382;43.852;25.952;2023-02-23T14:00:29;101508.50;;;14.03;46.06
71559;BME280;59382;43.852;25.952;2023-02-23T14:02:55;101519.78;;;14.00;46.53
71559;BME280;59382;43.852;25.952;2023-02-23T14:05:25;101502.75;;;13.87;46.82
71559;BME280;59382;43.852;25.952;2023-02-23T14:07:58;101514.03;;;13.83;47.47
71559;BME280;59382;43.852;25.952;2023-02-23T14:18:27;101525.78;;;13.38;48.64
71559;BME280;59382;43.852;25.952;2023-02-23T14:21:01;101526.00;;;13.30;48.59
71559;BME280;59382;43.852;25.952;2023-02-23T14:23:32;101525.56;;;13.33;48.31
71559;BME280;59382;43.852;25.952;2023-02-23T14:26:13;101520.78;;;13.35;49.05
71559;BME280;59382;43.852;25.952;2023-02-23T14:32:01;101533.31;;;13.23;49.26
71559;BME280;59382;43.852;25.952;2023-02-23T14:34:44;101530.38;;;13.18;48.98
71559;BME280;59382;43.852;25.952;2023-02-23T14:37:25;101508.72;;;13.12;48.84
71559;BME280;59382;43.852;25.952;2023-02-23T14:39:53;101522.03;;;13.26;48.29
71559;BME280;59382;43.852;25.952;2023-02-23T14:42:23;101519.56;;;13.31;47.52
71559;BME280;59382;43.852;25.952;2023-02-23T14:44:54;101512.44;;;13.37;47.13
71559;BME280;59382;43.852;25.952;2023-02-23T14:47:27;101508.25;;;13.47;46.64
71559;BME280;59382;43.852;25.952;2023-02-23T14:49:59;101502.84;;;13.47;46.28
71559;BME280;59382;43.852;25.952;2023-02-23T14:52:39;101496.16;;;13.56;45.92
71559;BME280;59382;43.852;25.952;2023-02-23T14:57:35;101508.03;;;13.68;45.42
71559;BME280;59382;43.852;25.952;2023-02-23T15:00:06;101512.59;;;13.74;44.90
71559;BME280;59382;43.852;25.952;2023-02-23T15:02:33;101497.78;;;13.70;45.21
71559;BME280;59382;43.852;25.952;2023-02-23T15:04:58;101509.88;;;13.74;45.25
71559;BME280;59382;43.852;25.952;2023-02-23T15:07:31;101501.13;;;13.72;45.06